Time;durP1;ratioP1;P1;durP2;ratioP2;P2;SDS_P1;SDS_P2;PMS_P1;PMS_P2;Temp;Humidity;BMP_temperature;BMP_pressure;BME280_temperature;BME280_humidity;BME280_pressure;Samples;Min_cycle;Max_cycle;Signal;HPM_P1;HPM_P2
2023/09/04 00:00:14;;;;;;;2.63;2.42;;;28.80;50.10;;;;;;5052221;28;20048;-70
2023/09/04 00:02:40;;;;;;;3.53;2.60;;;29.00;50.70;;;;;;5052168;28;20476;-70
2023/09/04 00:05:06;;;;;;;2.28;2.03;;;29.00;50.70;;;;;;5051924;28;20550;-69
2023/09/04 00:07:32;;;;;;;5.03;2.60;;;29.00;50.70;;;;;;5052391;28;20032;-70
2023/09/04 00:09:59;;;;;;;4.53;2.63;;;29.10;50.70;;;;;;5052230;28;20512;-70
2023/09/04 00:12:25;;;;;;;2.92;2.45;;;29.00;50.70;;;;;;5051876;28;20115;-69
2023/09/04 00:14:51;;;;;;;2.92;2.50;;;28.90;50.10;;;;;;5050598;28;20492;-69
2023/09/04 00:17:18;;;;;;;3.33;2.53;;;29.00;50.60;;;;;;5051840;28;20040;-69
2023/09/04 00:19:44;;;;;;;4.50;2.92;;;28.90;50.10;;;;;;5050507;28;20037;-70
2023/09/04 00:22:10;;;;;;;4.22;2.65;;;29.00;50.60;;;;;;5051523;28;20393;-69
2023/09/04 00:24:36;;;;;;;2.55;2.35;;;28.90;50.10;;;;;;5051765;28;20037;-69
2023/09/04 00:27:02;;;;;;;2.55;2.10;;;28.80;50.10;;;;;;5050454;28;20112;-69
2023/09/04 00:29:28;;;;;;;2.90;2.60;;;28.80;50.10;;;;;;5051427;28;20107;-70
2023/09/04 00:31:54;;;;;;;2.90;2.58;;;28.80;50.10;;;;;;5033547;28;20123;-69
2023/09/04 00:34:20;;;;;;;3.10;2.67;;;28.80;50.10;;;;;;5051371;28;20090;-69
2023/09/04 00:36:46;;;;;;;3.72;2.63;;;28.70;50.10;;;;;;5051401;28;20033;-69
2023/09/04 00:39:13;;;;;;;6.70;2.60;;;28.90;50.10;;;;;;5051335;28;20037;-70
2023/09/04 00:41:39;;;;;;;4.05;2.97;;;28.70;50.20;;;;;;5051388;28;20108;-69
2023/09/04 00:44:05;;;;;;;6.47;3.30;;;28.90;50.20;;;;;;5051299;28;20056;-70
2023/09/04 00:46:31;;;;;;;3.10;2.55;;;28.80;50.20;;;;;;5050066;28;20124;-70
2023/09/04 00:48:58;;;;;;;6.05;2.58;;;28.70;50.20;;;;;;5051125;28;20448;-69
2023/09/04 00:51:24;;;;;;;2.97;2.47;;;28.80;50.20;;;;;;5051129;28;20066;-70
2023/09/04 00:53:50;;;;;;;3.70;3.28;;;28.90;50.20;;;;;;5051370;28;20086;-69
2023/09/04 00:56:16;;;;;;;4.55;3.00;;;28.90;50.20;;;;;;5053938;28;20037;-70
2023/09/04 00:58:43;;;;;;;5.50;2.65;;;28.80;50.20;;;;;;5049863;28;20108;-70
2023/09/04 01:01:09;;;;;;;3.45;3.10;;;28.90;50.20;;;;;;5049365;28;20214;-70
2023/09/04 01:03:35;;;;;;;3.88;2.92;;;28.80;50.20;;;;;;5031897;28;20049;-69
2023/09/04 01:06:01;;;;;;;3.72;3.40;;;28.80;50.20;;;;;;5050930;28;20113;-70
2023/09/04 01:08:28;;;;;;;4.97;3.13;;;28.90;50.20;;;;;;5032247;28;20036;-70
2023/09/04 01:11:21;;;;;;;5.13;3.25;;;28.90;50.20;;;;;;5050905;28;20396;-69
2023/09/04 01:13:49;;;;;;;3.90;3.42;;;28.80;50.20;;;;;;5051146;28;20044;-69
2023/09/04 01:16:17;;;;;;;5.63;3.15;;;28.90;50.20;;;;;;5051214;28;20123;-70
2023/09/04 01:18:44;;;;;;;5.22;3.38;;;28.80;50.20;;;;;;5051227;28;20112;-70
2023/09/04 01:21:10;;;;;;;4.47;3.47;;;28.80;50.20;;;;;;5050829;28;20040;-69
2023/09/04 01:23:36;;;;;;;4.85;3.35;;;28.80;50.20;;;;;;5050844;28;20128;-69
2023/09/04 01:26:06;;;;;;;4.70;3.30;;;28.80;50.20;;;;;;5049546;28;20041;-68
2023/09/04 01:28:55;;;;;;;5.80;3.25;;;28.90;50.10;;;;;;5049580;28;20111;-70
2023/09/04 01:31:42;;;;;;;6.18;3.47;;;28.80;50.20;;;;;;5050640;28;20041;-70
2023/09/04 01:34:25;;;;;;;5.85;3.55;;;28.90;50.10;;;;;;5050860;28;20080;-70
2023/09/04 01:36:53;;;;;;;5.38;3.30;;;28.80;50.20;;;;;;5011764;28;20137;-70
2023/09/04 01:39:21;;;;;;;4.85;3.45;;;28.80;50.20;;;;;;5028384;28;20049;-70
2023/09/04 01:41:47;;;;;;;4.05;3.22;;;28.90;50.20;;;;;;5028415;28;20081;-70
2023/09/04 01:44:14;;;;;;;4.15;3.42;;;28.70;50.20;;;;;;5028434;28;20034;-70
2023/09/04 01:46:41;;;;;;;7.70;3.70;;;28.70;50.30;;;;;;5028151;28;20100;-70
2023/09/04 01:49:07;;;;;;;7.07;4.38;;;28.80;50.20;;;;;;5028257;28;20094;-70
2023/09/04 01:51:34;;;;;;;7.72;3.33;;;28.80;50.30;;;;;;5027858;28;20053;-69
2023/09/04 01:54:01;;;;;;;4.10;3.50;;;28.70;50.30;;;;;;5028244;28;20030;-68
2023/09/04 01:56:28;;;;;;;5.63;3.78;;;28.80;50.30;;;;;;5027888;28;20144;-69
2023/09/04 01:58:54;;;;;;;4.68;3.65;;;28.70;50.30;;;;;;5011834;28;20030;-70
2023/09/04 02:01:20;;;;;;;5.55;3.90;;;28.80;50.30;;;;;;5011345;28;20404;-70
2023/09/04 02:03:56;;;;;;;5.13;3.63;;;28.90;50.30;;;;;;5011702;28;20036;-70
2023/09/04 02:06:23;;;;;;;4.93;3.60;;;28.90;50.30;;;;;;5027881;28;20037;-69
2023/09/04 02:08:51;;;;;;;5.28;3.47;;;28.80;50.30;;;;;;5045344;28;20057;-70
2023/09/04 02:11:17;;;;;;;5.57;3.05;;;28.70;50.30;;;;;;5050145;28;20035;-69
2023/09/04 02:13:45;;;;;;;6.38;3.30;;;28.70;50.30;;;;;;5034435;28;20075;-69
2023/09/04 02:16:12;;;;;;;4.43;3.42;;;28.80;50.30;;;;;;5053012;28;20078;-70
2023/09/04 02:18:38;;;;;;;4.07;3.60;;;28.80;50.30;;;;;;5052919;28;20063;-69
2023/09/04 02:21:06;;;;;;;4.50;3.58;;;28.80;50.30;;;;;;5052267;28;20063;-69
2023/09/04 02:23:32;;;;;;;4.13;3.28;;;28.70;50.30;;;;;;5052869;28;20041;-69
2023/09/04 02:26:00;;;;;;;5.32;3.80;;;28.70;50.20;;;;;;5053972;28;20095;-69
2023/09/04 02:28:25;;;;;;;4.50;3.75;;;28.90;50.30;;;;;;5054002;28;20041;-70
2023/09/04 02:30:51;;;;;;;5.15;3.67;;;28.80;50.20;;;;;;5053990;28;20496;-70
2023/09/04 02:33:17;;;;;;;4.50;2.90;;;28.80;50.30;;;;;;5053563;28;20033;-70
2023/09/04 02:35:43;;;;;;;5.70;3.67;;;28.70;50.20;;;;;;5053888;28;20032;-69
2023/09/04 02:38:09;;;;;;;6.53;4.13;;;28.70;50.30;;;;;;5052479;28;20108;-69
2023/09/04 02:40:35;;;;;;;5.32;3.53;;;28.70;50.30;;;;;;5053810;28;20541;-70
2023/09/04 02:43:02;;;;;;;6.90;3.78;;;28.70;50.20;;;;;;5053661;28;20037;-69
2023/09/04 02:45:28;;;;;;;6.15;4.05;;;28.70;50.20;;;;;;5053446;28;20025;-69
2023/09/04 02:47:54;;;;;;;3.95;3.30;;;28.80;50.30;;;;;;5053598;28;20408;-70
2023/09/04 02:50:20;;;;;;;4.32;3.50;;;28.80;50.30;;;;;;5053760;28;20040;-70
2023/09/04 02:52:46;;;;;;;7.20;4.18;;;28.60;50.40;;;;;;5053298;28;20025;-70
2023/09/04 02:55:12;;;;;;;3.33;3.03;;;28.80;50.40;;;;;;5053184;28;20040;-70
2023/09/04 02:57:39;;;;;;;3.45;3.15;;;28.60;50.40;;;;;;5035784;28;20052;-70
2023/09/04 03:00:06;;;;;;;5.32;3.65;;;28.70;50.40;;;;;;5055211;28;20672;-69
2023/09/04 03:02:36;;;;;;;3.53;3.08;;;28.60;50.40;;;;;;5073018;28;20029;-68
2023/09/04 03:05:02;;;;;;;5.93;4.32;;;28.80;50.40;;;;;;5073380;28;20036;-69
2023/09/04 03:07:29;;;;;;;4.03;2.90;;;28.80;50.40;;;;;;5064891;28;20029;-70
2023/09/04 03:09:56;;;;;;;5.95;3.40;;;28.70;50.40;;;;;;5051901;28;20025;-69
2023/09/04 03:12:27;;;;;;;6.00;3.10;;;28.70;50.40;;;;;;5053016;28;20029;-69
2023/09/04 03:15:00;;;;;;;6.07;3.55;;;28.70;50.40;;;;;;5051856;28;20033;-70
2023/09/04 03:17:29;;;;;;;4.60;3.60;;;28.70;50.40;;;;;;5050654;28;20044;-70
2023/09/04 03:19:56;;;;;;;4.40;2.90;;;28.70;50.40;;;;;;5053040;28;20033;-69
2023/09/04 03:22:24;;;;;;;4.68;3.67;;;28.80;50.40;;;;;;5052758;28;20040;-69
2023/09/04 03:24:51;;;;;;;6.70;3.35;;;28.80;50.30;;;;;;5050954;28;20035;-70
2023/09/04 03:27:18;;;;;;;3.83;3.42;;;28.70;50.30;;;;;;5070108;28;20053;-70
2023/09/04 03:29:45;;;;;;;4.03;3.22;;;28.70;50.30;;;;;;5053660;28;20036;-70
2023/09/04 03:32:12;;;;;;;3.47;3.00;;;28.80;50.30;;;;;;5069970;28;20040;-70
2023/09/04 03:34:38;;;;;;;4.07;3.67;;;28.70;50.30;;;;;;5070318;28;20071;-70
2023/09/04 03:37:05;;;;;;;4.75;3.53;;;28.70;50.30;;;;;;5036754;28;20598;-70
2023/09/04 03:39:38;;;;;;;4.30;3.60;;;28.70;50.30;;;;;;5070083;28;20480;-69
2023/09/04 03:42:07;;;;;;;5.47;3.28;;;28.70;50.30;;;;;;5053366;28;20032;-69
2023/09/04 03:44:33;;;;;;;4.10;2.92;;;28.60;50.40;;;;;;5069860;28;20127;-70
2023/09/04 03:46:59;;;;;;;4.70;3.42;;;28.60;50.30;;;;;;5053297;28;20048;-69
2023/09/04 03:49:25;;;;;;;4.35;3.30;;;28.60;50.40;;;;;;5069617;28;20049;-70
2023/09/04 03:51:52;;;;;;;3.92;3.40;;;28.60;50.40;;;;;;5069727;28;20159;-70
2023/09/04 03:54:18;;;;;;;3.63;3.33;;;28.60;50.50;;;;;;5053005;28;20119;-70
2023/09/04 03:56:44;;;;;;;6.32;3.42;;;28.70;50.50;;;;;;5070009;28;20491;-71
2023/09/04 03:59:10;;;;;;;5.20;3.53;;;28.70;50.50;;;;;;5052982;28;20685;-70
2023/09/04 04:01:36;;;;;;;9.38;4.13;;;28.70;50.50;;;;;;5036349;28;20044;-70
2023/09/04 04:04:02;;;;;;;5.93;3.40;;;28.70;50.50;;;;;;5050019;28;20067;-70
2023/09/04 04:06:28;;;;;;;6.90;4.15;;;28.70;50.50;;;;;;5050671;28;20044;-69
2023/09/04 04:08:57;;;;;;;3.97;3.38;;;28.80;50.50;;;;;;5052092;28;20071;-70
2023/09/04 04:11:23;;;;;;;5.55;3.63;;;28.80;50.50;;;;;;5050837;28;20076;-68
2023/09/04 04:13:50;;;;;;;5.63;3.92;;;28.60;50.50;;;;;;5050884;28;20044;-69
2023/09/04 04:16:17;;;;;;;4.07;3.40;;;28.70;50.50;;;;;;5050631;28;20365;-69
2023/09/04 04:18:43;;;;;;;4.30;3.88;;;28.70;50.50;;;;;;5051676;28;20087;-70
2023/09/04 04:21:09;;;;;;;6.78;2.65;;;28.70;50.50;;;;;;5051502;28;20048;-70
2023/09/04 04:23:35;;;;;;;4.85;3.42;;;28.80;50.50;;;;;;5041924;28;20045;-70
2023/09/04 04:26:01;;;;;;;5.15;4.13;;;28.80;50.50;;;;;;5031619;28;20052;-70
2023/09/04 04:28:27;;;;;;;5.65;3.70;;;28.80;50.50;;;;;;5031574;28;20025;-69
2023/09/04 04:30:53;;;;;;;12.18;3.95;;;28.80;50.50;;;;;;5031474;28;20456;-70
2023/09/04 04:33:21;;;;;;;6.05;4.32;;;28.60;50.50;;;;;;5030113;28;20057;-69
2023/09/04 04:35:53;;;;;;;5.18;3.90;;;28.70;50.50;;;;;;5030451;28;20037;-70
2023/09/04 04:38:19;;;;;;;5.65;4.13;;;28.70;50.50;;;;;;5030308;28;20470;-69
2023/09/04 04:40:45;;;;;;;8.65;4.60;;;28.70;50.50;;;;;;5030311;28;20512;-70
2023/09/04 04:43:13;;;;;;;7.03;4.45;;;28.60;50.50;;;;;;5030107;28;20545;-70
2023/09/04 04:45:40;;;;;;;5.03;3.60;;;28.70;50.50;;;;;;5063442;28;20037;-70
2023/09/04 04:48:06;;;;;;;7.15;4.50;;;28.60;50.50;;;;;;5030002;28;20084;-69
2023/09/04 04:50:33;;;;;;;4.63;3.90;;;28.70;50.50;;;;;;5031444;28;20033;-70
2023/09/04 04:53:00;;;;;;;5.57;4.07;;;28.60;50.50;;;;;;5030030;28;20095;-70
2023/09/04 04:55:26;;;;;;;6.15;3.85;;;28.70;50.60;;;;;;5063597;28;20084;-69
2023/09/04 04:57:53;;;;;;;4.70;4.22;;;28.70;50.60;;;;;;5046582;28;20478;-70
2023/09/04 05:00:19;;;;;;;6.55;3.85;;;28.70;50.60;;;;;;5031249;28;20052;-70
2023/09/04 05:02:48;;;;;;;8.93;4.25;;;28.60;50.60;;;;;;5030720;28;20040;-70
2023/09/04 05:05:14;;;;;;;7.95;4.60;;;28.60;50.60;;;;;;5052721;28;20037;-70
2023/09/04 05:07:41;;;;;;;6.00;4.20;;;28.60;50.60;;;;;;5069914;28;20032;-70
2023/09/04 05:10:09;;;;;;;6.68;4.07;;;28.60;50.60;;;;;;5053253;28;20040;-69
2023/09/04 05:12:36;;;;;;;7.38;5.38;;;28.60;50.60;;;;;;5053401;28;20368;-69
2023/09/04 05:15:03;;;;;;;7.18;4.80;;;28.70;50.60;;;;;;5071162;28;20032;-70
2023/09/04 05:17:30;;;;;;;8.25;4.63;;;28.60;50.60;;;;;;5069801;28;20107;-70
2023/09/04 05:19:56;;;;;;;6.15;4.50;;;28.60;50.60;;;;;;5069643;28;20393;-70
2023/09/04 05:22:22;;;;;;;4.45;4.05;;;28.60;50.60;;;;;;5069812;28;20457;-69
2023/09/04 05:24:49;;;;;;;5.85;4.60;;;28.60;50.60;;;;;;5069711;28;20041;-70
2023/09/04 05:27:15;;;;;;;6.65;4.70;;;28.70;50.60;;;;;;5070835;28;20111;-69
2023/09/04 05:29:41;;;;;;;7.25;3.63;;;28.60;50.50;;;;;;5071012;28;20452;-70
2023/09/04 05:32:08;;;;;;;8.70;4.40;;;28.70;50.50;;;;;;5070695;28;20028;-69
2023/09/04 05:34:39;;;;;;;5.80;4.53;;;28.70;50.50;;;;;;5070785;28;20090;-69
2023/09/04 05:37:09;;;;;;;8.10;4.15;;;28.70;50.50;;;;;;5070690;28;20369;-70
2023/09/04 05:39:35;;;;;;;5.90;4.30;;;28.70;50.50;;;;;;5070799;28;20075;-70
2023/09/04 05:42:01;;;;;;;5.43;4.32;;;28.60;50.50;;;;;;5070574;28;20044;-70
2023/09/04 05:44:27;;;;;;;5.97;4.20;;;28.80;50.50;;;;;;5070678;28;20025;-69
2023/09/04 05:46:54;;;;;;;8.18;5.03;;;28.60;50.50;;;;;;5069154;28;20111;-70
2023/09/04 05:49:19;;;;;;;5.68;4.10;;;28.80;50.50;;;;;;5073897;28;20052;-69
2023/09/04 05:51:45;;;;;;;6.55;4.50;;;28.70;50.60;;;;;;5073415;28;20476;-70
2023/09/04 05:54:11;;;;;;;5.03;4.53;;;28.50;50.60;;;;;;5074443;28;20028;-70
2023/09/04 05:56:37;;;;;;;4.45;3.83;;;28.70;50.60;;;;;;5074862;28;20047;-69
2023/09/04 05:59:05;;;;;;;7.65;4.90;;;28.60;50.60;;;;;;5073205;28;20796;-70
2023/09/04 06:01:31;;;;;;;7.05;4.45;;;28.60;50.60;;;;;;5074405;28;20032;-69
2023/09/04 06:03:57;;;;;;;7.20;4.57;;;28.70;50.60;;;;;;5074378;28;20024;-69
2023/09/04 06:06:25;;;;;;;5.30;4.38;;;28.60;50.70;;;;;;5072996;28;20041;-69
2023/09/04 06:08:51;;;;;;;8.43;4.93;;;28.70;50.70;;;;;;5074171;28;20059;-70
2023/09/04 06:11:17;;;;;;;8.75;5.13;;;28.70;50.70;;;;;;5074469;28;20037;-70
2023/09/04 06:13:43;;;;;;;6.13;4.82;;;28.50;50.60;;;;;;5074202;28;20036;-69
2023/09/04 06:16:10;;;;;;;7.55;5.00;;;28.70;50.70;;;;;;5074184;28;20033;-70
2023/09/04 06:18:36;;;;;;;8.40;5.22;;;28.60;50.60;;;;;;5073049;28;20037;-69
2023/09/04 06:21:02;;;;;;;8.60;5.40;;;28.70;50.70;;;;;;5074223;28;20472;-70
2023/09/04 06:23:28;;;;;;;5.30;4.13;;;28.60;50.70;;;;;;5073885;28;20530;-70
2023/09/04 06:25:54;;;;;;;6.47;4.38;;;28.70;50.70;;;;;;5073920;28;20492;-70
2023/09/04 06:28:20;;;;;;;6.15;4.72;;;28.70;50.60;;;;;;5074102;28;20036;-70
2023/09/04 06:30:47;;;;;;;7.05;4.82;;;28.70;50.60;;;;;;5073749;28;20142;-69
2023/09/04 06:33:13;;;;;;;6.53;5.03;;;28.60;50.60;;;;;;5055663;28;20041;-70
2023/09/04 06:35:39;;;;;;;7.38;4.53;;;28.60;50.60;;;;;;5052848;28;20067;-70
2023/09/04 06:38:05;;;;;;;6.47;4.80;;;28.60;50.60;;;;;;5053855;28;20060;-70
2023/09/04 06:40:31;;;;;;;7.40;4.65;;;28.70;50.60;;;;;;5053761;28;20369;-70
2023/09/04 06:42:57;;;;;;;6.20;4.53;;;28.70;50.60;;;;;;5052435;28;20062;-70
2023/09/04 06:45:23;;;;;;;6.82;4.13;;;28.50;50.60;;;;;;5053554;28;20052;-69
2023/09/04 06:47:52;;;;;;;6.28;4.38;;;28.50;50.60;;;;;;5052423;28;20128;-70
2023/09/04 06:50:18;;;;;;;4.07;3.67;;;28.70;50.60;;;;;;5071057;28;20037;-69
2023/09/04 06:52:45;;;;;;;5.90;4.88;;;28.60;50.60;;;;;;5070802;28;20056;-69
2023/09/04 06:55:11;;;;;;;6.22;4.80;;;28.60;50.70;;;;;;5050656;28;20623;-70
2023/09/04 06:57:37;;;;;;;5.85;5.28;;;28.50;50.70;;;;;;5051075;28;20120;-69
2023/09/04 07:00:10;;;;;;;6.03;5.35;;;28.60;50.70;;;;;;5049641;28;20045;-69
2023/09/04 07:02:37;;;;;;;6.70;5.50;;;28.70;50.80;;;;;;5034167;28;20033;-69
2023/09/04 07:05:05;;;;;;;7.30;5.43;;;28.70;50.80;;;;;;5052666;28;20045;-69
2023/09/04 07:07:35;;;;;;;7.45;5.28;;;28.50;50.80;;;;;;5050757;28;20049;-69
2023/09/04 07:10:05;;;;;;;4.68;4.18;;;28.60;50.80;;;;;;5050809;28;20049;-70
2023/09/04 07:12:34;;;;;;;7.25;4.85;;;28.70;50.80;;;;;;5050645;28;20037;-70
2023/09/04 07:15:00;;;;;;;9.23;5.43;;;28.70;50.80;;;;;;5050545;28;20480;-70
2023/09/04 07:17:26;;;;;;;7.07;5.60;;;28.60;50.80;;;;;;5034049;28;20122;-70
2023/09/04 07:19:52;;;;;;;10.13;5.97;;;28.50;50.80;;;;;;5050573;28;20492;-69
2023/09/04 07:22:18;;;;;;;8.18;5.55;;;28.70;50.80;;;;;;5050701;28;20045;-69
2023/09/04 07:24:45;;;;;;;7.10;4.97;;;28.70;50.80;;;;;;5050453;28;20036;-70
2023/09/04 07:27:11;;;;;;;9.38;5.00;;;28.70;50.70;;;;;;5034343;28;20132;-69
2023/09/04 07:29:47;;;;;;;6.43;4.30;;;28.70;50.70;;;;;;5032030;28;20065;-69
2023/09/04 07:32:13;;;;;;;7.95;4.30;;;28.70;50.70;;;;;;5032799;28;20049;-70
2023/09/04 07:34:39;;;;;;;7.97;5.25;;;28.60;50.70;;;;;;5047923;28;20038;-70
2023/09/04 07:37:05;;;;;;;5.28;4.72;;;28.70;50.70;;;;;;5032672;28;20424;-70
2023/09/04 07:39:31;;;;;;;6.50;4.85;;;28.50;50.70;;;;;;5032666;28;20022;-68
2023/09/04 07:41:57;;;;;;;10.02;5.22;;;28.70;50.70;;;;;;5032708;28;20469;-70
2023/09/04 07:44:23;;;;;;;5.68;4.50;;;28.60;50.70;;;;;;5032723;28;20120;-70
2023/09/04 07:46:50;;;;;;;6.32;4.57;;;28.60;50.60;;;;;;5032541;28;20045;-70
2023/09/04 07:49:16;;;;;;;8.55;5.15;;;28.40;50.60;;;;;;5032424;28;20144;-70
2023/09/04 07:51:42;;;;;;;7.50;4.90;;;28.60;50.60;;;;;;5032552;28;20037;-69
2023/09/04 07:54:11;;;;;;;7.68;5.18;;;28.60;50.70;;;;;;5032395;28;20116;-70
2023/09/04 07:56:37;;;;;;;5.00;3.88;;;28.60;50.70;;;;;;5031396;28;20059;-70
2023/09/04 07:59:04;;;;;;;4.80;4.07;;;28.60;50.70;;;;;;5032466;28;20083;-69
2023/09/04 08:01:31;;;;;;;5.85;4.72;;;28.60;50.70;;;;;;5032334;28;20029;-69
2023/09/04 08:03:57;;;;;;;6.47;4.97;;;28.50;50.80;;;;;;5030704;28;20048;-69
2023/09/04 08:06:23;;;;;;;6.00;4.30;;;28.60;50.80;;;;;;5032119;28;20034;-70
2023/09/04 08:08:50;;;;;;;6.38;4.70;;;28.60;50.80;;;;;;5032253;28;20037;-70
2023/09/04 08:11:16;;;;;;;7.57;4.93;;;28.70;50.80;;;;;;5030704;28;20128;-69
2023/09/04 08:13:42;;;;;;;6.85;4.80;;;28.50;50.80;;;;;;5031843;28;20092;-70
2023/09/04 08:16:08;;;;;;;5.70;4.20;;;28.60;50.80;;;;;;5032119;28;20033;-69
2023/09/04 08:18:35;;;;;;;5.47;4.15;;;28.50;50.80;;;;;;5079745;28;20049;-70
2023/09/04 08:21:01;;;;;;;5.43;3.90;;;28.70;50.80;;;;;;5032086;28;20041;-68
2023/09/04 08:23:27;;;;;;;4.72;4.22;;;28.60;50.80;;;;;;5036909;28;20036;-70
2023/09/04 08:26:03;;;;;;;4.72;3.83;;;28.70;50.80;;;;;;5051626;28;20140;-70
2023/09/04 08:28:30;;;;;;;5.03;4.28;;;28.60;50.70;;;;;;5051684;28;20025;-70
2023/09/04 08:30:56;;;;;;;4.93;4.32;;;28.50;50.70;;;;;;5051687;28;20033;-70
2023/09/04 08:33:22;;;;;;;4.90;4.10;;;28.50;50.70;;;;;;5051561;28;20037;-70
2023/09/04 08:35:48;;;;;;;7.20;4.20;;;28.50;50.60;;;;;;5051578;28;20037;-69
2023/09/04 08:38:14;;;;;;;4.10;3.70;;;28.70;50.60;;;;;;5050531;28;20434;-70
2023/09/04 08:40:41;;;;;;;6.70;3.53;;;28.60;50.40;;;;;;5051569;28;20110;-70
2023/09/04 08:43:08;;;;;;;3.67;3.38;;;28.50;50.20;;;;;;5051615;28;20056;-68
2023/09/04 08:45:36;;;;;;;4.80;4.22;;;28.60;50.00;;;;;;5050135;28;20047;-71
2023/09/04 08:48:03;;;;;;;4.88;3.65;;;28.60;49.80;;;;;;5051314;28;20064;-70
2023/09/04 08:50:30;;;;;;;5.90;4.13;;;28.70;49.50;;;;;;5051475;28;20021;-69
2023/09/04 08:52:56;;;;;;;7.60;4.22;;;28.60;49.30;;;;;;5051344;28;20078;-69
2023/09/04 08:55:23;;;;;;;4.45;3.55;;;28.50;48.80;;;;;;5051190;28;20032;-70
2023/09/04 08:57:49;;;;;;;6.32;4.13;;;28.60;48.40;;;;;;5051027;28;20078;-70
2023/09/04 09:00:16;;;;;;;4.85;3.80;;;28.50;48.00;;;;;;5051248;28;20451;-69
2023/09/04 09:02:43;;;;;;;5.53;3.58;;;28.60;47.70;;;;;;5051165;28;20060;-70
2023/09/04 09:05:12;;;;;;;3.88;3.08;;;28.50;47.30;;;;;;5052820;28;20048;-70
2023/09/04 09:07:40;;;;;;;4.25;3.83;;;28.40;46.90;;;;;;5071017;28;20447;-69
2023/09/04 09:10:10;;;;;;;5.53;4.15;;;28.50;46.50;;;;;;5071167;28;20040;-70
2023/09/04 09:12:36;;;;;;;5.35;3.60;;;28.50;46.30;;;;;;5069844;28;20025;-70
2023/09/04 09:15:02;;;;;;;5.18;4.15;;;28.40;45.90;;;;;;5070978;28;20044;-69
2023/09/04 09:17:28;;;;;;;4.10;3.58;;;28.50;45.70;;;;;;5071029;28;20036;-69
2023/09/04 09:19:54;;;;;;;4.43;3.35;;;28.50;45.20;;;;;;5071123;28;20070;-70
2023/09/04 09:22:22;;;;;;;7.25;3.95;;;28.50;44.80;;;;;;5070578;28;20110;-70
2023/09/04 09:25:00;;;;;;;5.00;3.80;;;28.60;44.60;;;;;;5070712;28;20034;-70
2023/09/04 09:27:31;;;;;;;4.13;3.22;;;28.50;44.60;;;;;;5071112;28;20036;-70
2023/09/04 09:30:01;;;;;;;4.47;3.30;;;28.40;44.50;;;;;;5071032;28;20047;-70
2023/09/04 09:32:32;;;;;;;5.45;3.53;;;28.50;44.70;;;;;;5068629;28;20124;-69
2023/09/04 09:35:00;;;;;;;5.22;3.28;;;28.40;44.80;;;;;;5070896;28;20033;-70
2023/09/04 09:37:30;;;;;;;4.22;3.60;;;28.40;44.60;;;;;;5070856;28;20407;-70
2023/09/04 09:39:56;;;;;;;5.35;3.70;;;28.30;44.50;;;;;;5070771;28;20178;-69
2023/09/04 09:42:23;;;;;;;5.28;3.00;;;28.40;44.50;;;;;;5070688;28;20504;-70
2023/09/04 09:44:52;;;;;;;3.75;2.88;;;28.30;44.30;;;;;;5070573;28;20091;-70
2023/09/04 09:47:18;;;;;;;5.90;3.40;;;28.30;44.30;;;;;;5069434;28;20063;-69
2023/09/04 09:49:45;;;;;;;6.25;3.78;;;28.40;44.20;;;;;;5070613;28;20056;-70
2023/09/04 09:52:13;;;;;;;4.38;3.33;;;28.30;44.10;;;;;;5070818;28;20028;-70
2023/09/04 09:54:41;;;;;;;6.35;3.95;;;28.30;43.90;;;;;;5070618;28;20190;-70
2023/09/04 09:57:09;;;;;;;5.72;3.47;;;28.20;43.30;;;;;;5070801;28;20043;-70
2023/09/04 09:59:37;;;;;;;3.55;3.05;;;28.20;43.00;;;;;;5070699;28;20029;-70
2023/09/04 10:02:05;;;;;;;4.40;3.65;;;28.30;42.60;;;;;;5070689;28;20051;-70
2023/09/04 10:04:32;;;;;;;3.92;3.20;;;28.30;42.50;;;;;;5070487;28;20060;-69
2023/09/04 10:07:00;;;;;;;5.28;3.15;;;28.20;42.10;;;;;;5070431;28;20037;-70
2023/09/04 10:09:28;;;;;;;3.75;3.17;;;28.20;42.00;;;;;;5070408;28;20044;-70
2023/09/04 10:12:02;;;;;;;4.28;3.03;;;28.20;41.70;;;;;;5070732;28;20094;-70
2023/09/04 10:14:35;;;;;;;3.45;3.15;;;28.20;41.50;;;;;;5070453;28;20033;-70
2023/09/04 10:17:02;;;;;;;2.72;2.53;;;28.30;41.30;;;;;;5070284;28;20028;-68
2023/09/04 10:19:35;;;;;;;4.05;2.78;;;28.20;41.10;;;;;;5051880;28;20032;-70
2023/09/04 10:22:08;;;;;;;3.15;2.85;;;28.30;41.00;;;;;;5050383;28;20098;-69
2023/09/04 10:25:12;;;;;;;1.27;1.20;;;28.30;40.80;;;;;;5050394;28;20414;-69
2023/09/04 10:27:56;;;;;;;3.72;2.83;;;28.30;40.70;;;;;;5008433;28;20045;-70
2023/09/04 10:30:25;;;;;;;5.47;3.67;;;28.30;40.70;;;;;;5008310;28;20077;-69
2023/09/04 10:32:54;;;;;;;4.00;3.60;;;28.30;41.00;;;;;;5008424;28;20650;-69
2023/09/04 10:35:20;;;;;;;8.40;4.45;;;28.20;41.40;;;;;;5010660;28;20429;-69
2023/09/04 10:37:49;;;;;;;4.68;4.03;;;28.20;41.90;;;;;;5011631;28;20136;-69
2023/09/04 10:40:26;;;;;;;9.52;4.10;;;28.20;41.90;;;;;;4979079;28;20077;-70
2023/09/04 10:42:52;;;;;;;6.18;5.30;;;28.20;41.90;;;;;;5011680;28;20030;-69
2023/09/04 10:45:19;;;;;;;6.30;5.07;;;28.10;42.30;;;;;;5011117;28;20406;-69
2023/09/04 10:47:46;;;;;;;6.97;4.63;;;28.20;42.30;;;;;;4995160;28;20197;-69
2023/09/04 10:50:27;;;;;;;8.32;4.13;;;28.10;42.20;;;;;;5011453;28;20034;-69
2023/09/04 10:52:55;;;;;;;5.72;4.60;;;28.10;42.00;;;;;;5011604;28;20045;-69
2023/09/04 10:55:24;;;;;;;5.05;4.50;;;28.00;42.60;;;;;;5011259;28;20591;-69
2023/09/04 10:57:57;;;;;;;4.93;4.40;;;28.30;41.90;;;;;;5011515;28;20092;-69
2023/09/04 11:00:46;;;;;;;5.85;4.75;;;28.10;41.90;;;;;;4994748;28;20502;-69
2023/09/04 11:03:21;;;;;;;7.00;3.92;;;28.00;42.30;;;;;;4959843;28;20048;-69
2023/09/04 11:06:04;;;;;;;4.45;4.05;;;28.00;41.20;;;;;;5037443;28;20128;-69
2023/09/04 11:08:32;;;;;;;3.58;2.83;;;28.00;41.00;;;;;;5033339;28;20037;-69
2023/09/04 11:11:06;;;;;;;5.10;4.28;;;27.90;40.90;;;;;;5033216;28;20477;-69
2023/09/04 11:13:43;;;;;;;6.75;5.10;;;27.90;40.60;;;;;;5033320;28;20116;-70
2023/09/04 11:16:09;;;;;;;6.05;4.20;;;27.90;40.50;;;;;;5033256;28;20033;-69
2023/09/04 11:18:37;;;;;;;4.82;4.18;;;28.00;42.10;;;;;;5033386;28;20072;-69
2023/09/04 11:21:03;;;;;;;7.22;4.85;;;27.80;40.50;;;;;;5033396;28;20026;-69
2023/09/04 11:23:31;;;;;;;5.22;4.63;;;27.90;41.60;;;;;;5030346;28;20124;-69
2023/09/04 11:25:57;;;;;;;8.48;5.13;;;27.90;40.50;;;;;;5030347;28;20053;-69
2023/09/04 11:28:26;;;;;;;6.43;4.60;;;27.80;40.40;;;;;;5030733;28;20124;-69
2023/09/04 11:30:59;;;;;;;5.22;4.72;;;27.90;39.60;;;;;;5030601;28;20033;-70
2023/09/04 11:33:33;;;;;;;5.03;4.53;;;27.90;39.40;;;;;;5030496;28;20053;-69
2023/09/04 11:36:00;;;;;;;7.50;4.75;;;28.00;39.80;;;;;;5029933;28;20182;-70
2023/09/04 11:38:29;;;;;;;5.22;4.72;;;28.00;40.10;;;;;;5030152;28;20045;-69
2023/09/04 11:40:55;;;;;;;5.78;4.65;;;27.90;38.80;;;;;;5030258;28;20116;-69
2023/09/04 11:43:26;;;;;;;5.40;3.80;;;27.90;38.70;;;;;;5030500;28;20038;-70
2023/09/04 11:45:57;;;;;;;7.28;4.57;;;28.00;38.90;;;;;;5029440;28;20150;-70
2023/09/04 11:48:27;;;;;;;8.20;4.20;;;28.00;39.00;;;;;;5030098;28;20173;-70
2023/09/04 11:50:54;;;;;;;5.00;4.35;;;27.90;38.20;;;;;;5030351;28;20041;-69
2023/09/04 11:53:24;;;;;;;6.00;3.83;;;27.90;38.20;;;;;;5030173;28;20033;-70
2023/09/04 11:55:53;;;;;;;5.28;4.40;;;28.10;38.50;;;;;;5032245;28;20045;-69
2023/09/04 11:58:24;;;;;;;5.75;4.68;;;28.00;38.30;;;;;;5031504;28;20052;-70
2023/09/04 12:00:50;;;;;;;4.45;3.20;;;27.90;37.60;;;;;;5032351;28;20062;-70
2023/09/04 12:03:19;;;;;;;4.15;3.75;;;28.10;38.00;;;;;;5032283;28;20465;-69
2023/09/04 12:05:47;;;;;;;2.67;2.45;;;28.00;37.90;;;;;;5030815;28;20369;-70
2023/09/04 12:08:13;;;;;;;3.08;2.78;;;28.00;37.70;;;;;;5032163;28;20033;-69
2023/09/04 12:10:49;;;;;;;3.30;3.00;;;28.00;37.60;;;;;;5032310;28;20366;-70
2023/09/04 12:13:16;;;;;;;4.40;3.38;;;28.00;37.60;;;;;;5032281;28;20037;-69
2023/09/04 12:15:42;;;;;;;3.95;3.13;;;28.00;37.60;;;;;;5031936;28;20044;-69
2023/09/04 12:18:10;;;;;;;6.22;2.92;;;28.10;37.40;;;;;;5031926;28;20133;-70
2023/09/04 12:20:41;;;;;;;3.20;2.90;;;28.10;37.40;;;;;;5032059;28;20037;-70
2023/09/04 12:23:09;;;;;;;5.53;2.92;;;28.00;37.30;;;;;;5038449;28;20059;-69
2023/09/04 12:25:37;;;;;;;3.85;2.95;;;28.10;37.30;;;;;;5051570;28;20210;-69
2023/09/04 12:28:14;;;;;;;3.53;2.65;;;28.10;37.10;;;;;;5050320;28;20465;-70
2023/09/04 12:30:47;;;;;;;1.60;1.50;;;28.00;37.00;;;;;;5051847;28;20029;-69
2023/09/04 12:33:18;;;;;;;5.35;2.67;;;28.00;36.80;;;;;;5051694;28;20031;-69
2023/09/04 12:35:53;;;;;;;1.70;1.60;;;28.00;37.00;;;;;;5051548;28;20041;-69
2023/09/04 12:38:20;;;;;;;2.08;1.80;;;28.00;36.70;;;;;;5051626;28;20021;-69
2023/09/04 12:40:46;;;;;;;4.10;1.50;;;28.00;36.60;;;;;;5051691;28;20496;-70
2023/09/04 12:43:12;;;;;;;2.30;2.10;;;28.00;36.60;;;;;;5051598;28;20048;-70
2023/09/04 12:45:38;;;;;;;1.75;1.63;;;28.00;36.70;;;;;;5051283;28;20045;-70
2023/09/04 12:48:14;;;;;;;2.38;2.08;;;28.20;36.50;;;;;;5051468;28;20409;-69